sensor_id;sensor_type;location;lat;lon;timestamp;temperature;humidity
21906;DHT22;11117;48.644;9.006;2024-03-23T00:55:34;9.80;99.90
21906;DHT22;11117;48.644;9.006;2024-03-23T00:57:59;9.80;99.90
21906;DHT22;11117;48.644;9.006;2024-03-23T01:00:25;9.80;99.90
21906;DHT22;11117;48.644;9.006;2024-03-23T01:02:51;9.80;99.90
21906;DHT22;11117;48.644;9.006;2024-03-23T01:05:16;9.70;99.90
21906;DHT22;11117;48.644;9.006;2024-03-23T01:07:42;9.70;99.90
21906;DHT22;11117;48.644;9.006;2024-03-23T01:10:07;9.70;99.90
21906;DHT22;11117;48.644;9.006;2024-03-23T01:12:33;9.60;99.90
21906;DHT22;11117;48.644;9.006;2024-03-23T01:14:59;9.60;99.90
21906;DHT22;11117;48.644;9.006;2024-03-23T01:17:24;9.60;99.90
21906;DHT22;11117;48.644;9.006;2024-03-23T01:19:53;9.50;99.90
21906;DHT22;11117;48.644;9.006;2024-03-23T01:22:18;9.50;99.90
21906;DHT22;11117;48.644;9.006;2024-03-23T01:24:44;9.40;99.90
21906;DHT22;11117;48.644;9.006;2024-03-23T01:27:10;9.40;99.90
21906;DHT22;11117;48.644;9.006;2024-03-23T01:29:35;9.50;99.90
21906;DHT22;11117;48.644;9.006;2024-03-23T01:32:01;9.50;99.90
21906;DHT22;11117;48.644;9.006;2024-03-23T01:34:26;9.40;99.90
21906;DHT22;11117;48.644;9.006;2024-03-23T01:36:52;9.40;99.90
21906;DHT22;11117;48.644;9.006;2024-03-23T01:39:18;9.30;99.90
21906;DHT22;11117;48.644;9.006;2024-03-23T01:41:43;9.30;99.90
21906;DHT22;11117;48.644;9.006;2024-03-23T01:44:09;9.30;99.90
21906;DHT22;11117;48.644;9.006;2024-03-23T01:46:38;9.30;99.90
21906;DHT22;11117;48.644;9.006;2024-03-23T01:49:05;9.30;99.90
21906;DHT22;11117;48.644;9.006;2024-03-23T01:51:31;9.30;99.90
21906;DHT22;11117;48.644;9.006;2024-03-23T01:53:57;9.40;99.90
21906;DHT22;11117;48.644;9.006;2024-03-23T01:56:24;9.30;99.90
21906;DHT22;11117;48.644;9.006;2024-03-23T01:58:49;9.40;99.90
21906;DHT22;11117;48.644;9.006;2024-03-23T02:01:15;9.40;99.90
21906;DHT22;11117;48.644;9.006;2024-03-23T02:03:40;9.50;99.90
21906;DHT22;11117;48.644;9.006;2024-03-23T02:06:06;9.50;99.90
21906;DHT22;11117;48.644;9.006;2024-03-23T02:08:35;9.50;99.90
21906;DHT22;11117;48.644;9.006;2024-03-23T02:11:01;9.60;99.90
21906;DHT22;11117;48.644;9.006;2024-03-23T02:13:26;9.60;99.90
21906;DHT22;11117;48.644;9.006;2024-03-23T02:15:52;9.70;99.90
21906;DHT22;11117;48.644;9.006;2024-03-23T02:18:17;9.70;99.90
21906;DHT22;11117;48.644;9.006;2024-03-23T02:20:43;9.60;99.90
21906;DHT22;11117;48.644;9.006;2024-03-23T02:23:16;9.70;99.90
21906;DHT22;11117;48.644;9.006;2024-03-23T02:25:41;9.60;99.90
21906;DHT22;11117;48.644;9.006;2024-03-23T02:28:07;9.60;99.90
21906;DHT22;11117;48.644;9.006;2024-03-23T02:30:33;9.60;99.90
21906;DHT22;11117;48.644;9.006;2024-03-23T02:32:59;9.60;99.90
21906;DHT22;11117;48.644;9.006;2024-03-23T02:35:25;9.70;99.90
21906;DHT22;11117;48.644;9.006;2024-03-23T02:37:50;9.60;99.90
21906;DHT22;11117;48.644;9.006;2024-03-23T02:40:16;9.60;99.90
21906;DHT22;11117;48.644;9.006;2024-03-23T02:42:42;9.60;99.90
21906;DHT22;11117;48.644;9.006;2024-03-23T02:45:08;9.60;99.90
21906;DHT22;11117;48.644;9.006;2024-03-23T02:47:34;9.50;99.90
21906;DHT22;11117;48.644;9.006;2024-03-23T02:50:00;9.60;99.90
21906;DHT22;11117;48.644;9.006;2024-03-23T02:52:25;9.50;99.90
21906;DHT22;11117;48.644;9.006;2024-03-23T02:54:51;9.40;99.90
21906;DHT22;11117;48.644;9.006;2024-03-23T02:57:16;9.40;99.90
21906;DHT22;11117;48.644;9.006;2024-03-23T02:59:42;9.30;99.90
21906;DHT22;11117;48.644;9.006;2024-03-23T03:02:08;9.20;99.90
21906;DHT22;11117;48.644;9.006;2024-03-23T03:04:33;9.10;99.90
21906;DHT22;11117;48.644;9.006;2024-03-23T03:06:59;9.10;99.90
21906;DHT22;11117;48.644;9.006;2024-03-23T03:09:25;9.10;99.90
21906;DHT22;11117;48.644;9.006;2024-03-23T03:11:50;9.00;99.90
21906;DHT22;11117;48.644;9.006;2024-03-23T03:14:16;9.00;99.90
21906;DHT22;11117;48.644;9.006;2024-03-23T03:16:41;8.90;99.90
21906;DHT22;11117;48.644;9.006;2024-03-23T03:19:07;8.90;99.90
21906;DHT22;11117;48.644;9.006;2024-03-23T03:21:33;8.90;99.90
21906;DHT22;11117;48.644;9.006;2024-03-23T03:23:58;8.90;99.90
21906;DHT22;11117;48.644;9.006;2024-03-23T03:26:24;8.90;99.90
21906;DHT22;11117;48.644;9.006;2024-03-23T03:28:50;9.00;99.90
21906;DHT22;11117;48.644;9.006;2024-03-23T03:31:16;9.10;99.90
21906;DHT22;11117;48.644;9.006;2024-03-23T03:33:43;9.10;99.90
21906;DHT22;11117;48.644;9.006;2024-03-23T03:36:08;9.20;99.90
21906;DHT22;11117;48.644;9.006;2024-03-23T03:38:37;9.20;99.90
21906;DHT22;11117;48.644;9.006;2024-03-23T03:41:03;9.30;99.90
21906;DHT22;11117;48.644;9.006;2024-03-23T03:43:28;9.30;99.90
21906;DHT22;11117;48.644;9.006;2024-03-23T03:45:55;9.30;99.90
21906;DHT22;11117;48.644;9.006;2024-03-23T03:48:21;9.40;99.90
21906;DHT22;11117;48.644;9.006;2024-03-23T03:50:47;9.40;99.90
21906;DHT22;11117;48.644;9.006;2024-03-23T03:53:12;9.40;99.90
21906;DHT22;11117;48.644;9.006;2024-03-23T03:55:38;9.50;99.90
21906;DHT22;11117;48.644;9.006;2024-03-23T03:58:03;9.50;99.90
21906;DHT22;11117;48.644;9.006;2024-03-23T04:00:29;9.60;99.90
21906;DHT22;11117;48.644;9.006;2024-03-23T04:02:55;9.60;99.90
21906;DHT22;11117;48.644;9.006;2024-03-23T04:05:20;9.60;99.90
21906;DHT22;11117;48.644;9.006;2024-03-23T04:07:47;9.60;99.90
21906;DHT22;11117;48.644;9.006;2024-03-23T04:10:13;9.60;99.90
21906;DHT22;11117;48.644;9.006;2024-03-23T04:12:39;9.70;99.90
21906;DHT22;11117;48.644;9.006;2024-03-23T04:15:05;9.70;99.90
21906;DHT22;11117;48.644;9.006;2024-03-23T04:17:31;9.80;99.90
21906;DHT22;11117;48.644;9.006;2024-03-23T04:19:57;9.80;99.90
21906;DHT22;11117;48.644;9.006;2024-03-23T04:22:23;9.90;99.90
21906;DHT22;11117;48.644;9.006;2024-03-23T04:24:49;9.90;99.90
21906;DHT22;11117;48.644;9.006;2024-03-23T04:27:14;9.90;99.90
21906;DHT22;11117;48.644;9.006;2024-03-23T04:29:40;9.90;99.90
21906;DHT22;11117;48.644;9.006;2024-03-23T04:32:05;10.00;99.90
21906;DHT22;11117;48.644;9.006;2024-03-23T04:34:31;10.00;99.90
21906;DHT22;11117;48.644;9.006;2024-03-23T04:36:56;10.10;99.90
21906;DHT22;11117;48.644;9.006;2024-03-23T04:39:22;10.20;99.90
21906;DHT22;11117;48.644;9.006;2024-03-23T04:41:47;10.30;99.90
21906;DHT22;11117;48.644;9.006;2024-03-23T04:44:13;10.40;99.90
21906;DHT22;11117;48.644;9.006;2024-03-23T04:46:39;10.40;99.90
21906;DHT22;11117;48.644;9.006;2024-03-23T04:49:04;10.40;99.90
21906;DHT22;11117;48.644;9.006;2024-03-23T04:51:35;10.20;99.90
21906;DHT22;11117;48.644;9.006;2024-03-23T04:54:01;9.80;99.90
21906;DHT22;11117;48.644;9.006;2024-03-23T04:56:27;9.50;99.90
21906;DHT22;11117;48.644;9.006;2024-03-23T04:58:52;8.70;99.90
21906;DHT22;11117;48.644;9.006;2024-03-23T05:01:18;8.40;99.90
21906;DHT22;11117;48.644;9.006;2024-03-23T05:03:45;8.30;99.90
21906;DHT22;11117;48.644;9.006;2024-03-23T05:06:11;8.30;99.90
21906;DHT22;11117;48.644;9.006;2024-03-23T05:08:37;8.30;99.90
21906;DHT22;11117;48.644;9.006;2024-03-23T05:11:02;8.40;99.90
21906;DHT22;11117;48.644;9.006;2024-03-23T05:13:28;8.40;99.90
21906;DHT22;11117;48.644;9.006;2024-03-23T05:15:54;8.50;99.90
21906;DHT22;11117;48.644;9.006;2024-03-23T05:18:20;8.60;99.90
21906;DHT22;11117;48.644;9.006;2024-03-23T05:20:46;8.60;99.90
21906;DHT22;11117;48.644;9.006;2024-03-23T05:23:11;8.60;99.90
21906;DHT22;11117;48.644;9.006;2024-03-23T05:25:37;8.70;99.90
21906;DHT22;11117;48.644;9.006;2024-03-23T05:28:03;8.70;99.90
21906;DHT22;11117;48.644;9.006;2024-03-23T05:30:28;8.70;99.90
21906;DHT22;11117;48.644;9.006;2024-03-23T05:32:54;8.70;99.90
21906;DHT22;11117;48.644;9.006;2024-03-23T05:35:19;8.60;99.90
21906;DHT22;11117;48.644;9.006;2024-03-23T05:37:45;8.60;99.90
21906;DHT22;11117;48.644;9.006;2024-03-23T05:40:11;8.60;99.90
21906;DHT22;11117;48.644;9.006;2024-03-23T05:42:37;8.60;99.90
21906;DHT22;11117;48.644;9.006;2024-03-23T05:45:02;8.50;99.90
21906;DHT22;11117;48.644;9.006;2024-03-23T05:47:28;8.50;99.90
21906;DHT22;11117;48.644;9.006;2024-03-23T05:49:54;8.50;99.90
21906;DHT22;11117;48.644;9.006;2024-03-23T05:52:19;8.40;99.90
21906;DHT22;11117;48.644;9.006;2024-03-23T05:54:45;8.30;99.90
21906;DHT22;11117;48.644;9.006;2024-03-23T05:57:10;8.30;99.90
21906;DHT22;11117;48.644;9.006;2024-03-23T05:59:36;8.30;99.90
21906;DHT22;11117;48.644;9.006;2024-03-23T06:02:01;8.30;99.90
21906;DHT22;11117;48.644;9.006;2024-03-23T06:04:27;8.30;99.90
21906;DHT22;11117;48.644;9.006;2024-03-23T06:06:52;8.20;99.90
21906;DHT22;11117;48.644;9.006;2024-03-23T06:09:18;8.20;99.90
21906;DHT22;11117;48.644;9.006;2024-03-23T06:11:44;8.10;99.90
21906;DHT22;11117;48.644;9.006;2024-03-23T06:14:09;8.10;99.90
21906;DHT22;11117;48.644;9.006;2024-03-23T06:16:35;8.00;99.90
21906;DHT22;11117;48.644;9.006;2024-03-23T06:19:01;7.90;99.90
21906;DHT22;11117;48.644;9.006;2024-03-23T06:21:26;7.90;99.90
21906;DHT22;11117;48.644;9.006;2024-03-23T06:23:52;7.80;99.90
21906;DHT22;11117;48.644;9.006;2024-03-23T06:26:19;7.80;99.90
21906;DHT22;11117;48.644;9.006;2024-03-23T06:28:45;7.80;99.90
21906;DHT22;11117;48.644;9.006;2024-03-23T06:31:10;7.70;99.90
21906;DHT22;11117;48.644;9.006;2024-03-23T06:33:37;7.70;99.90
21906;DHT22;11117;48.644;9.006;2024-03-23T06:36:07;7.70;99.90
21906;DHT22;11117;48.644;9.006;2024-03-23T06:38:37;7.80;99.90
21906;DHT22;11117;48.644;9.006;2024-03-23T06:41:04;7.80;99.90
21906;DHT22;11117;48.644;9.006;2024-03-23T06:43:29;7.80;99.90
21906;DHT22;11117;48.644;9.006;2024-03-23T06:45:55;7.80;99.90
21906;DHT22;11117;48.644;9.006;2024-03-23T06:48:20;7.70;99.90
21906;DHT22;11117;48.644;9.006;2024-03-23T06:50:47;7.70;99.90
21906;DHT22;11117;48.644;9.006;2024-03-23T06:53:13;7.70;99.90
21906;DHT22;11117;48.644;9.006;2024-03-23T06:55:39;7.60;99.90
21906;DHT22;11117;48.644;9.006;2024-03-23T06:58:05;7.70;99.90
21906;DHT22;11117;48.644;9.006;2024-03-23T07:00:31;7.50;99.90
21906;DHT22;11117;48.644;9.006;2024-03-23T07:02:57;7.50;99.90
21906;DHT22;11117;48.644;9.006;2024-03-23T07:05:22;7.70;99.90
21906;DHT22;11117;48.644;9.006;2024-03-23T07:07:48;7.70;99.90
21906;DHT22;11117;48.644;9.006;2024-03-23T07:10:13;7.70;99.90
21906;DHT22;11117;48.644;9.006;2024-03-23T07:12:39;7.70;99.90
21906;DHT22;11117;48.644;9.006;2024-03-23T07:15:05;7.80;99.90
21906;DHT22;11117;48.644;9.006;2024-03-23T07:17:30;7.80;99.90
21906;DHT22;11117;48.644;9.006;2024-03-23T07:19:56;7.90;99.90
21906;DHT22;11117;48.644;9.006;2024-03-23T07:22:22;7.90;99.90
21906;DHT22;11117;48.644;9.006;2024-03-23T07:24:47;7.70;99.90
21906;DHT22;11117;48.644;9.006;2024-03-23T07:27:13;7.80;99.90
21906;DHT22;11117;48.644;9.006;2024-03-23T07:29:38;7.50;99.90
21906;DHT22;11117;48.644;9.006;2024-03-23T07:32:04;7.00;99.90
21906;DHT22;11117;48.644;9.006;2024-03-23T07:34:30;7.00;99.90
21906;DHT22;11117;48.644;9.006;2024-03-23T07:36:55;7.20;99.90
21906;DHT22;11117;48.644;9.006;2024-03-23T07:39:21;7.30;99.90
21906;DHT22;11117;48.644;9.006;2024-03-23T07:41:46;7.20;99.90
21906;DHT22;11117;48.644;9.006;2024-03-23T07:44:12;7.30;99.90
21906;DHT22;11117;48.644;9.006;2024-03-23T07:46:38;7.30;99.90
21906;DHT22;11117;48.644;9.006;2024-03-23T07:49:07;7.30;99.90
21906;DHT22;11117;48.644;9.006;2024-03-23T07:51:32;7.20;99.90
21906;DHT22;11117;48.644;9.006;2024-03-23T07:53:58;7.20;99.90
21906;DHT22;11117;48.644;9.006;2024-03-23T07:56:23;7.30;99.90
21906;DHT22;11117;48.644;9.006;2024-03-23T07:58:49;7.30;99.90
21906;DHT22;11117;48.644;9.006;2024-03-23T08:01:16;7.30;99.90
21906;DHT22;11117;48.644;9.006;2024-03-23T08:03:43;7.30;99.90
21906;DHT22;11117;48.644;9.006;2024-03-23T08:06:20;7.30;99.90
21906;DHT22;11117;48.644;9.006;2024-03-23T08:08:47;7.40;99.90
21906;DHT22;11117;48.644;9.006;2024-03-23T08:11:13;7.40;99.90
21906;DHT22;11117;48.644;9.006;2024-03-23T08:13:40;7.30;99.90
21906;DHT22;11117;48.644;9.006;2024-03-23T08:16:06;7.30;99.90
21906;DHT22;11117;48.644;9.006;2024-03-23T08:18:35;7.30;99.90
21906;DHT22;11117;48.644;9.006;2024-03-23T08:21:05;7.40;99.90
21906;DHT22;11117;48.644;9.006;2024-03-23T08:23:32;7.30;99.90
21906;DHT22;11117;48.644;9.006;2024-03-23T08:25:59;7.30;99.90
21906;DHT22;11117;48.644;9.006;2024-03-23T08:28:26;7.20;99.90
21906;DHT22;11117;48.644;9.006;2024-03-23T08:30:53;7.30;99.90
21906;DHT22;11117;48.644;9.006;2024-03-23T08:33:18;7.30;99.90
21906;DHT22;11117;48.644;9.006;2024-03-23T08:35:58;7.30;99.90
21906;DHT22;11117;48.644;9.006;2024-03-23T08:38:24;7.30;99.90
21906;DHT22;11117;48.644;9.006;2024-03-23T08:43:26;7.50;99.90
21906;DHT22;11117;48.644;9.006;2024-03-23T08:45:53;7.30;99.90
21906;DHT22;11117;48.644;9.006;2024-03-23T08:48:21;7.30;99.90
21906;DHT22;11117;48.644;9.006;2024-03-23T08:50:47;7.30;99.90
21906;DHT22;11117;48.644;9.006;2024-03-23T08:53:22;7.30;99.90
21906;DHT22;11117;48.644;9.006;2024-03-23T08:55:55;7.20;99.90
21906;DHT22;11117;48.644;9.006;2024-03-23T08:58:21;7.30;99.90
21906;DHT22;11117;48.644;9.006;2024-03-23T09:00:47;7.30;99.90
21906;DHT22;11117;48.644;9.006;2024-03-23T09:03:12;7.20;99.90
21906;DHT22;11117;48.644;9.006;2024-03-23T09:05:41;7.20;99.90
21906;DHT22;11117;48.644;9.006;2024-03-23T09:08:07;6.80;99.90
21906;DHT22;11117;48.644;9.006;2024-03-23T09:10:39;6.50;99.90
21906;DHT22;11117;48.644;9.006;2024-03-23T09:13:05;6.10;99.90
21906;DHT22;11117;48.644;9.006;2024-03-23T09:15:31;6.10;99.90
21906;DHT22;11117;48.644;9.006;2024-03-23T09:17:58;6.20;99.90
21906;DHT22;11117;48.644;9.006;2024-03-23T09:20:24;6.40;99.90
21906;DHT22;11117;48.644;9.006;2024-03-23T09:22:49;6.50;99.90
21906;DHT22;11117;48.644;9.006;2024-03-23T09:25:15;6.60;99.90
21906;DHT22;11117;48.644;9.006;2024-03-23T09:27:41;6.90;99.90
21906;DHT22;11117;48.644;9.006;2024-03-23T09:30:06;7.20;99.90
21906;DHT22;11117;48.644;9.006;2024-03-23T09:32:32;7.50;99.90
21906;DHT22;11117;48.644;9.006;2024-03-23T09:34:58;7.40;99.90
21906;DHT22;11117;48.644;9.006;2024-03-23T09:37:29;7.40;99.90
21906;DHT22;11117;48.644;9.006;2024-03-23T09:39:55;7.40;99.90
21906;DHT22;11117;48.644;9.006;2024-03-23T09:42:20;7.50;99.90
21906;DHT22;11117;48.644;9.006;2024-03-23T09:44:46;7.40;99.90
21906;DHT22;11117;48.644;9.006;2024-03-23T09:47:12;7.40;99.90
21906;DHT22;11117;48.644;9.006;2024-03-23T09:49:38;7.60;99.90
21906;DHT22;11117;48.644;9.006;2024-03-23T09:52:04;7.70;99.90
21906;DHT22;11117;48.644;9.006;2024-03-23T09:54:30;7.80;99.90
21906;DHT22;11117;48.644;9.006;2024-03-23T09:56:55;8.00;99.90
21906;DHT22;11117;48.644;9.006;2024-03-23T09:59:21;8.10;99.90
21906;DHT22;11117;48.644;9.006;2024-03-23T10:01:47;8.10;99.90
21906;DHT22;11117;48.644;9.006;2024-03-23T10:04:35;8.40;99.90
21906;DHT22;11117;48.644;9.006;2024-03-23T10:07:14;8.60;99.90
21906;DHT22;11117;48.644;9.006;2024-03-23T10:09:40;8.60;99.90
21906;DHT22;11117;48.644;9.006;2024-03-23T10:12:19;8.80;99.90
21906;DHT22;11117;48.644;9.006;2024-03-23T10:14:45;8.80;99.90
21906;DHT22;11117;48.644;9.006;2024-03-23T10:19:47;9.50;99.90
21906;DHT22;11117;48.644;9.006;2024-03-23T10:22:20;9.60;99.90
21906;DHT22;11117;48.644;9.006;2024-03-23T10:24:46;9.70;99.90
21906;DHT22;11117;48.644;9.006;2024-03-23T10:27:20;9.80;99.90
21906;DHT22;11117;48.644;9.006;2024-03-23T10:29:46;9.80;99.90
21906;DHT22;11117;48.644;9.006;2024-03-23T10:32:16;9.70;99.90
21906;DHT22;11117;48.644;9.006;2024-03-23T10:34:42;9.60;99.90
21906;DHT22;11117;48.644;9.006;2024-03-23T10:37:08;9.40;99.90
21906;DHT22;11117;48.644;9.006;2024-03-23T10:39:35;9.30;99.90
21906;DHT22;11117;48.644;9.006;2024-03-23T10:42:06;9.10;99.90
21906;DHT22;11117;48.644;9.006;2024-03-23T10:44:32;8.60;99.90
21906;DHT22;11117;48.644;9.006;2024-03-23T10:47:01;7.90;99.90
21906;DHT22;11117;48.644;9.006;2024-03-23T10:49:29;6.30;99.90
21906;DHT22;11117;48.644;9.006;2024-03-23T10:52:05;5.10;99.90
21906;DHT22;11117;48.644;9.006;2024-03-23T10:54:32;4.50;99.90
21906;DHT22;11117;48.644;9.006;2024-03-23T10:57:21;4.50;99.90
21906;DHT22;11117;48.644;9.006;2024-03-23T10:59:48;4.00;99.90
21906;DHT22;11117;48.644;9.006;2024-03-23T11:02:21;3.70;99.90
21906;DHT22;11117;48.644;9.006;2024-03-23T11:04:47;3.70;99.90
21906;DHT22;11117;48.644;9.006;2024-03-23T11:07:30;3.90;99.90
21906;DHT22;11117;48.644;9.006;2024-03-23T11:09:56;4.10;99.90
21906;DHT22;11117;48.644;9.006;2024-03-23T11:14:48;4.60;99.90
21906;DHT22;11117;48.644;9.006;2024-03-23T11:17:20;4.90;99.90
21906;DHT22;11117;48.644;9.006;2024-03-23T11:20:03;5.10;99.90
21906;DHT22;11117;48.644;9.006;2024-03-23T11:22:45;5.20;99.90
21906;DHT22;11117;48.644;9.006;2024-03-23T11:25:15;5.40;99.90
21906;DHT22;11117;48.644;9.006;2024-03-23T11:27:42;5.80;99.90
21906;DHT22;11117;48.644;9.006;2024-03-23T11:30:15;6.00;99.90
21906;DHT22;11117;48.644;9.006;2024-03-23T11:32:47;6.10;99.90
21906;DHT22;11117;48.644;9.006;2024-03-23T11:35:40;6.30;99.90
21906;DHT22;11117;48.644;9.006;2024-03-23T11:38:10;6.60;99.90
21906;DHT22;11117;48.644;9.006;2024-03-23T11:40:40;6.80;99.90
21906;DHT22;11117;48.644;9.006;2024-03-23T11:43:08;7.00;99.90
21906;DHT22;11117;48.644;9.006;2024-03-23T11:45:36;7.10;99.90
21906;DHT22;11117;48.644;9.006;2024-03-23T11:48:15;7.10;99.90
21906;DHT22;11117;48.644;9.006;2024-03-23T11:50:42;7.30;99.90
21906;DHT22;11117;48.644;9.006;2024-03-23T11:55:57;7.50;99.90
21906;DHT22;11117;48.644;9.006;2024-03-23T11:58:24;7.50;99.90
21906;DHT22;11117;48.644;9.006;2024-03-23T12:01:01;7.70;99.90
21906;DHT22;11117;48.644;9.006;2024-03-23T12:03:27;7.80;99.90
21906;DHT22;11117;48.644;9.006;2024-03-23T12:05:55;8.20;99.90
21906;DHT22;11117;48.644;9.006;2024-03-23T12:08:23;8.30;99.90
21906;DHT22;11117;48.644;9.006;2024-03-23T12:10:50;8.60;99.90
21906;DHT22;11117;48.644;9.006;2024-03-23T12:13:21;8.50;99.90
21906;DHT22;11117;48.644;9.006;2024-03-23T12:15:48;8.40;99.90
21906;DHT22;11117;48.644;9.006;2024-03-23T12:18:14;8.20;99.90
21906;DHT22;11117;48.644;9.006;2024-03-23T12:20:40;8.20;99.90
21906;DHT22;11117;48.644;9.006;2024-03-23T12:23:07;8.40;99.90
21906;DHT22;11117;48.644;9.006;2024-03-23T12:25:33;8.40;99.90
21906;DHT22;11117;48.644;9.006;2024-03-23T12:27:59;8.60;99.90
21906;DHT22;11117;48.644;9.006;2024-03-23T12:30:25;8.40;99.90
21906;DHT22;11117;48.644;9.006;2024-03-23T12:32:50;8.60;99.90
21906;DHT22;11117;48.644;9.006;2024-03-23T12:35:16;9.10;99.90
21906;DHT22;11117;48.644;9.006;2024-03-23T12:37:41;8.90;99.90
21906;DHT22;11117;48.644;9.006;2024-03-23T12:40:08;9.00;99.90
21906;DHT22;11117;48.644;9.006;2024-03-23T12:42:34;8.70;99.90
21906;DHT22;11117;48.644;9.006;2024-03-23T12:45:00;8.50;99.90
21906;DHT22;11117;48.644;9.006;2024-03-23T12:47:25;8.40;99.90
21906;DHT22;11117;48.644;9.006;2024-03-23T12:49:51;8.40;99.90
21906;DHT22;11117;48.644;9.006;2024-03-23T12:52:16;8.40;99.90
21906;DHT22;11117;48.644;9.006;2024-03-23T12:54:42;8.60;99.90
21906;DHT22;11117;48.644;9.006;2024-03-23T12:57:07;8.90;99.90
21906;DHT22;11117;48.644;9.006;2024-03-23T12:59:33;8.70;99.90
21906;DHT22;11117;48.644;9.006;2024-03-23T13:01:59;8.80;99.90
21906;DHT22;11117;48.644;9.006;2024-03-23T13:04:24;8.50;99.90
21906;DHT22;11117;48.644;9.006;2024-03-23T13:06:50;8.40;99.90
21906;DHT22;11117;48.644;9.006;2024-03-23T13:09:15;8.40;99.90
21906;DHT22;11117;48.644;9.006;2024-03-23T13:11:41;7.90;99.90
21906;DHT22;11117;48.644;9.006;2024-03-23T13:14:06;7.50;99.90
21906;DHT22;11117;48.644;9.006;2024-03-23T13:16:32;7.20;99.90
21906;DHT22;11117;48.644;9.006;2024-03-23T13:18:57;6.80;99.90
21906;DHT22;11117;48.644;9.006;2024-03-23T13:21:23;6.40;99.90
21906;DHT22;11117;48.644;9.006;2024-03-23T13:23:49;6.30;99.90
21906;DHT22;11117;48.644;9.006;2024-03-23T13:26:14;6.40;99.90
21906;DHT22;11117;48.644;9.006;2024-03-23T13:28:40;6.50;99.90
21906;DHT22;11117;48.644;9.006;2024-03-23T13:31:05;6.60;99.90
21906;DHT22;11117;48.644;9.006;2024-03-23T13:33:32;6.80;99.90
21906;DHT22;11117;48.644;9.006;2024-03-23T13:35:58;7.00;99.90
21906;DHT22;11117;48.644;9.006;2024-03-23T13:38:24;7.10;99.90
21906;DHT22;11117;48.644;9.006;2024-03-23T13:41:00;7.20;99.90
21906;DHT22;11117;48.644;9.006;2024-03-23T13:43:27;7.30;99.90
21906;DHT22;11117;48.644;9.006;2024-03-23T13:45:57;7.50;99.90
21906;DHT22;11117;48.644;9.006;2024-03-23T13:48:24;7.60;99.90
21906;DHT22;11117;48.644;9.006;2024-03-23T13:51:00;7.80;99.90
21906;DHT22;11117;48.644;9.006;2024-03-23T13:53:26;8.00;99.90
21906;DHT22;11117;48.644;9.006;2024-03-23T13:55:52;8.20;99.90
21906;DHT22;11117;48.644;9.006;2024-03-23T13:58:17;8.60;99.90
21906;DHT22;11117;48.644;9.006;2024-03-23T14:00:43;9.00;99.90
21906;DHT22;11117;48.644;9.006;2024-03-23T14:03:09;9.10;99.90
21906;DHT22;11117;48.644;9.006;2024-03-23T14:05:36;9.00;99.90
21906;DHT22;11117;48.644;9.006;2024-03-23T14:08:01;8.50;99.90
21906;DHT22;11117;48.644;9.006;2024-03-23T14:10:27;7.50;99.90
21906;DHT22;11117;48.644;9.006;2024-03-23T14:12:53;7.00;99.90
21906;DHT22;11117;48.644;9.006;2024-03-23T14:15:18;6.80;99.90
21906;DHT22;11117;48.644;9.006;2024-03-23T14:17:44;6.60;99.90
21906;DHT22;11117;48.644;9.006;2024-03-23T14:20:10;6.80;99.90
21906;DHT22;11117;48.644;9.006;2024-03-23T14:22:36;7.00;99.90
21906;DHT22;11117;48.644;9.006;2024-03-23T14:25:01;7.40;99.90
21906;DHT22;11117;48.644;9.006;2024-03-23T14:27:27;7.70;99.90
21906;DHT22;11117;48.644;9.006;2024-03-23T14:29:52;8.00;99.90
21906;DHT22;11117;48.644;9.006;2024-03-23T14:32:18;8.10;99.90
21906;DHT22;11117;48.644;9.006;2024-03-23T14:34:43;7.90;99.90
21906;DHT22;11117;48.644;9.006;2024-03-23T14:37:09;7.50;99.90
21906;DHT22;11117;48.644;9.006;2024-03-23T14:39:34;7.10;99.90
21906;DHT22;11117;48.644;9.006;2024-03-23T14:42:03;6.70;99.90
21906;DHT22;11117;48.644;9.006;2024-03-23T14:44:29;6.50;99.90
21906;DHT22;11117;48.644;9.006;2024-03-23T14:46:54;6.50;99.90
21906;DHT22;11117;48.644;9.006;2024-03-23T14:49:20;6.50;99.90
21906;DHT22;11117;48.644;9.006;2024-03-23T14:51:46;6.40;99.90
21906;DHT22;11117;48.644;9.006;2024-03-23T14:54:11;6.10;99.90
21906;DHT22;11117;48.644;9.006;2024-03-23T14:56:37;5.70;99.90
21906;DHT22;11117;48.644;9.006;2024-03-23T14:59:02;5.20;99.90
21906;DHT22;11117;48.644;9.006;2024-03-23T15:01:28;4.90;99.90
21906;DHT22;11117;48.644;9.006;2024-03-23T15:03:54;5.00;99.90
21906;DHT22;11117;48.644;9.006;2024-03-23T15:06:19;5.20;99.90
21906;DHT22;11117;48.644;9.006;2024-03-23T15:08:45;5.50;99.90
21906;DHT22;11117;48.644;9.006;2024-03-23T15:11:11;5.60;99.90
21906;DHT22;11117;48.644;9.006;2024-03-23T15:13:38;5.60;99.90
21906;DHT22;11117;48.644;9.006;2024-03-23T15:16:04;5.60;99.90
21906;DHT22;11117;48.644;9.006;2024-03-23T15:18:30;5.50;99.90
21906;DHT22;11117;48.644;9.006;2024-03-23T15:21:00;5.70;99.90
21906;DHT22;11117;48.644;9.006;2024-03-23T15:23:25;5.80;99.90
21906;DHT22;11117;48.644;9.006;2024-03-23T15:26:01;6.00;99.90
21906;DHT22;11117;48.644;9.006;2024-03-23T15:28:28;6.20;99.90
21906;DHT22;11117;48.644;9.006;2024-03-23T15:30:57;6.30;99.90
21906;DHT22;11117;48.644;9.006;2024-03-23T15:33:23;6.40;99.90
21906;DHT22;11117;48.644;9.006;2024-03-23T15:35:49;6.60;99.90
21906;DHT22;11117;48.644;9.006;2024-03-23T15:38:14;6.80;99.90
21906;DHT22;11117;48.644;9.006;2024-03-23T15:40:40;6.70;99.90
21906;DHT22;11117;48.644;9.006;2024-03-23T15:43:05;6.70;99.90
21906;DHT22;11117;48.644;9.006;2024-03-23T15:45:31;6.60;99.90
21906;DHT22;11117;48.644;9.006;2024-03-23T15:47:57;6.50;99.90
21906;DHT22;11117;48.644;9.006;2024-03-23T15:50:22;6.40;99.90
21906;DHT22;11117;48.644;9.006;2024-03-23T15:52:48;6.30;99.90
21906;DHT22;11117;48.644;9.006;2024-03-23T15:55:13;6.30;99.90
21906;DHT22;11117;48.644;9.006;2024-03-23T15:57:40;6.20;99.90
21906;DHT22;11117;48.644;9.006;2024-03-23T16:00:06;6.20;99.90
21906;DHT22;11117;48.644;9.006;2024-03-23T16:02:31;6.10;99.90
21906;DHT22;11117;48.644;9.006;2024-03-23T16:04:57;6.40;99.90
21906;DHT22;11117;48.644;9.006;2024-03-23T16:07:23;6.50;99.90
21906;DHT22;11117;48.644;9.006;2024-03-23T16:09:48;6.40;99.90
21906;DHT22;11117;48.644;9.006;2024-03-23T16:12:14;6.30;99.90
21906;DHT22;11117;48.644;9.006;2024-03-23T16:14:39;6.10;99.90
21906;DHT22;11117;48.644;9.006;2024-03-23T16:17:05;6.10;99.90
21906;DHT22;11117;48.644;9.006;2024-03-23T16:19:30;6.50;99.90
21906;DHT22;11117;48.644;9.006;2024-03-23T16:21:56;6.90;99.90
21906;DHT22;11117;48.644;9.006;2024-03-23T16:24:21;6.90;99.90
21906;DHT22;11117;48.644;9.006;2024-03-23T16:26:47;6.70;99.90
21906;DHT22;11117;48.644;9.006;2024-03-23T16:29:13;6.50;99.90
21906;DHT22;11117;48.644;9.006;2024-03-23T16:31:38;6.50;99.90
21906;DHT22;11117;48.644;9.006;2024-03-23T16:34:04;6.40;99.90
21906;DHT22;11117;48.644;9.006;2024-03-23T16:36:29;6.40;99.90
21906;DHT22;11117;48.644;9.006;2024-03-23T16:38:55;6.40;99.90
21906;DHT22;11117;48.644;9.006;2024-03-23T16:41:21;6.40;99.90
21906;DHT22;11117;48.644;9.006;2024-03-23T16:43:46;6.50;99.90
21906;DHT22;11117;48.644;9.006;2024-03-23T16:46:13;6.40;99.90